Time;durP1;ratioP1;P1;durP2;ratioP2;P2;SDS_P1;SDS_P2;PMS_P1;PMS_P2;Temp;Humidity;BMP_temperature;BMP_pressure;BME280_temperature;BME280_humidity;BME280_pressure;Samples;Min_cycle;Max_cycle;Signal;HPM_P1;HPM_P2
2022/02/10 00:05:46;;;;;;;41.87;27.47;;;9.70;99.90;;;;;;5052707;28;20477;-75
2022/02/10 00:13:20;;;;;;;44.23;27.73;;;9.70;99.90;;;;;;5052735;28;20461;-74
2022/02/10 00:19:12;;;;;;;40.03;26.80;;;9.70;99.90;;;;;;5041659;28;20095;-75
2022/02/10 00:25:56;;;;;;;39.37;26.87;;;9.60;99.90;;;;;;5031832;28;20037;-74
2022/02/10 00:35:40;;;;;;;40.67;25.45;;;9.60;99.90;;;;;;5056581;28;20039;-74
2022/02/10 00:38:05;;;;;;;40.47;26.47;;;9.60;99.90;;;;;;5038854;28;20036;-75
2022/02/10 00:40:34;;;;;;;36.13;23.63;;;9.60;99.90;;;;;;5055954;28;20029;-74
2022/02/10 00:43:01;;;;;;;35.87;24.60;;;9.60;99.90;;;;;;5056023;28;20025;-75
2022/02/10 00:45:32;;;;;;;38.60;25.90;;;9.60;99.90;;;;;;5055737;28;20116;-75
2022/02/10 00:48:10;;;;;;;38.70;25.17;;;9.60;99.90;;;;;;5055706;28;20040;-75
2022/02/10 00:50:38;;;;;;;42.00;25.73;;;9.50;99.90;;;;;;5055989;28;20021;-75
2022/02/10 00:53:12;;;;;;;41.00;26.37;;;9.50;99.90;;;;;;5037845;28;20021;-75
2022/02/10 00:55:40;;;;;;;35.92;23.60;;;9.60;99.90;;;;;;5055718;28;20025;-75
2022/02/10 00:58:09;;;;;;;35.07;22.60;;;9.60;99.90;;;;;;5055573;28;20028;-75
2022/02/10 01:24:32;;;;;;;35.80;22.38;;;9.60;99.90;;;;;;5055340;28;20179;-75
2022/02/10 01:29:45;;;;;;;;;;;9.50;99.90;;;;;;5055491;28;20032;-75
2022/02/10 01:32:11;;;;;;;31.13;19.13;;;9.50;99.90;;;;;;5037122;28;19947;-75
2022/02/10 01:34:56;;;;;;;29.80;18.70;;;9.50;99.90;;;;;;5037381;28;20083;-75
2022/02/10 01:37:21;;;;;;;30.70;18.80;;;9.60;99.90;;;;;;5054850;28;20028;-75
2022/02/10 01:39:52;;;;;;;32.17;19.37;;;9.60;99.90;;;;;;5055026;28;20044;-75
2022/02/10 02:03:48;;;;;;;24.77;15.60;;;9.60;99.90;;;;;;5039959;28;20045;-75
2022/02/10 02:06:22;;;;;;;21.97;14.47;;;9.60;99.90;;;;;;5036536;28;20037;-75
2022/02/10 02:08:47;;;;;;;22.48;14.43;;;9.60;99.90;;;;;;5036294;28;20481;-75
2022/02/10 02:11:13;;;;;;;23.93;14.70;;;9.60;99.90;;;;;;5036557;28;20060;-74
2022/02/10 02:13:39;;;;;;;21.97;13.87;;;9.60;99.90;;;;;;5036357;28;20033;-74
2022/02/10 02:16:05;;;;;;;22.03;13.80;;;9.60;99.90;;;;;;5053994;28;20149;-74
2022/02/10 02:18:31;;;;;;;23.50;14.03;;;9.60;99.90;;;;;;5036236;28;20012;-74
2022/02/10 02:20:58;;;;;;;20.17;12.57;;;9.60;99.90;;;;;;5053939;28;20029;-74
2022/02/10 02:23:27;;;;;;;20.27;12.73;;;9.60;99.90;;;;;;5054064;28;20017;-74
2022/02/10 02:26:00;;;;;;;22.30;13.40;;;9.60;99.90;;;;;;5053948;28;20028;-74
2022/02/10 02:28:26;;;;;;;19.13;13.13;;;9.60;99.90;;;;;;5036047;28;20021;-74
2022/02/10 02:31:00;;;;;;;20.80;12.03;;;9.60;99.90;;;;;;5053921;28;20036;-74
2022/02/10 03:05:53;;;;;;;22.40;12.00;;;9.60;99.90;;;;;;5053351;28;20063;-74
2022/02/10 03:08:22;;;;;;;19.85;12.48;;;9.60;99.90;;;;;;5053453;28;20495;-74
2022/02/10 03:13:19;;;;;;;18.47;12.10;;;9.60;99.90;;;;;;5053314;28;20037;-75
2022/02/10 03:18:45;;;;;;;18.45;12.95;;;9.60;99.90;;;;;;5053345;28;20248;-75
2022/02/10 04:02:29;;;;;;;22.52;14.48;;;9.50;99.90;;;;;;5027655;28;20063;-74
2022/02/10 04:13:07;;;;;;;25.27;15.93;;;9.40;99.90;;;;;;5056471;28;20381;-74
2022/02/10 04:20:54;;;;;;;21.65;14.73;;;9.50;99.90;;;;;;5056577;28;20115;-74
2022/02/10 04:26:22;;;;;;;24.87;17.00;;;9.40;99.90;;;;;;5056601;28;20048;-74
2022/02/10 04:43:09;;;;;;;33.33;18.10;;;9.40;99.90;;;;;;5056197;28;20056;-74
2022/02/10 05:35:55;;;;;;;29.87;18.43;;;9.20;99.90;;;;;;5052860;28;20378;-74
2022/02/10 05:38:32;;;;;;;28.40;18.23;;;9.20;99.90;;;;;;5050931;28;20460;-75
2022/02/10 05:44:21;;;;;;;34.93;20.43;;;9.20;99.90;;;;;;5053152;28;20033;-74
2022/02/10 05:46:59;;;;;;;31.60;20.17;;;9.20;99.90;;;;;;5053006;28;20493;-74
2022/02/10 06:51:26;;;;;;;35.20;22.02;;;8.90;99.90;;;;;;5051752;28;20036;-74
2022/02/10 06:54:04;;;;;;;38.47;24.30;;;8.90;99.90;;;;;;5032863;28;20504;-75
2022/02/10 07:54:12;;;;;;;6.77;3.00;;;8.60;99.90;;;;;;5052792;28;20087;-74
2022/02/10 08:04:39;;;;;;;3.77;1.60;;;8.30;99.90;;;;;;5035189;28;20124;-74
2022/02/10 08:58:51;;;;;;;4.27;1.23;;;8.60;99.90;;;;;;5055864;28;20033;-75
2022/02/10 09:03:52;;;;;;;3.03;0.90;;;8.60;99.90;;;;;;5038655;28;20026;-75
2022/02/10 10:02:12;;;;;;;6.77;1.00;;;8.80;99.90;;;;;;5021102;28;20075;-75
2022/02/10 10:04:59;;;;;;;6.53;0.83;;;8.80;99.90;;;;;;5054294;28;20036;-76
2022/02/10 10:54:28;;;;;;;6.30;1.50;;;10.40;99.30;;;;;;5037960;28;20044;-75
2022/02/10 10:56:59;;;;;;;5.60;1.30;;;10.50;99.20;;;;;;5053172;28;20071;-75
2022/02/10 11:00:45;;;;;;;10.52;1.63;;;10.60;98.60;;;;;;5035960;28;20104;-76
2022/02/10 11:42:25;;;;;;;6.85;2.05;;;13.80;92.20;;;;;;5053003;28;20063;-76
2022/02/10 12:36:20;;;;;;;9.35;3.95;;;11.20;85.80;;;;;;5056502;28;20033;-75
2022/02/10 13:33:13;;;;;;;8.23;1.60;;;10.30;82.90;;;;;;5053871;28;20028;-75
2022/02/10 14:15:41;;;;;;;8.53;1.50;;;9.90;82.50;;;;;;5036114;28;20041;-75
2022/02/10 14:18:30;;;;;;;5.53;1.07;;;9.90;82.10;;;;;;5052590;28;20040;-75
2022/02/10 14:21:11;;;;;;;8.67;1.10;;;9.80;82.30;;;;;;5053448;28;20047;-75
2022/02/10 14:28:58;;;;;;;7.70;1.27;;;9.80;82.00;;;;;;5044236;28;20063;-75
2022/02/10 14:31:25;;;;;;;9.43;1.70;;;9.80;81.80;;;;;;5036011;28;20075;-75
2022/02/10 14:33:51;;;;;;;4.30;0.90;;;9.70;81.40;;;;;;5053962;28;20070;-76
2022/02/10 14:37:00;;;;;;;5.87;0.77;;;9.70;80.40;;;;;;5052613;28;20077;-74
2022/02/10 14:39:51;;;;;;;3.93;0.70;;;9.60;80.30;;;;;;5048987;28;20497;-75
2022/02/10 14:42:29;;;;;;;9.87;1.57;;;9.60;81.10;;;;;;5052303;28;20036;-75
2022/02/10 15:52:39;;;;;;;6.37;1.20;;;9.30;82.60;;;;;;5058087;28;20030;-75
2022/02/10 15:55:27;;;;;;;8.20;1.20;;;9.20;82.90;;;;;;5055284;28;20034;-74
2022/02/10 16:12:42;;;;;;;2.80;0.68;;;8.80;84.60;;;;;;5055940;28;20504;-74
2022/02/10 16:17:06;;;;;;;9.10;1.70;;;8.70;84.60;;;;;;5056365;28;20040;-75
2022/02/10 16:19:34;;;;;;;9.70;1.20;;;8.70;84.70;;;;;;5041236;28;20116;-75
2022/02/10 16:22:12;;;;;;;7.17;1.30;;;8.70;84.40;;;;;;5055294;28;20198;-74
2022/02/10 16:24:56;;;;;;;9.57;1.60;;;8.50;84.00;;;;;;5055082;28;20071;-74
2022/02/10 16:27:27;;;;;;;6.70;0.93;;;8.50;83.40;;;;;;5056247;28;20070;-74
2022/02/10 16:30:05;;;;;;;10.27;1.07;;;8.50;83.70;;;;;;5056414;28;20275;-74
2022/02/10 16:32:31;;;;;;;7.40;1.43;;;8.50;83.50;;;;;;5054843;28;20025;-74
2022/02/10 16:35:01;;;;;;;5.17;0.80;;;8.50;83.60;;;;;;5054910;28;20056;-75
2022/02/10 16:37:27;;;;;;;4.77;0.80;;;8.50;83.70;;;;;;5056050;28;20060;-74
2022/02/10 16:39:53;;;;;;;11.10;1.10;;;8.40;83.80;;;;;;5056092;28;20427;-78
2022/02/10 16:42:19;;;;;;;6.80;1.30;;;8.40;83.80;;;;;;5055017;28;20029;-76
2022/02/10 16:44:47;;;;;;;7.60;1.00;;;8.40;84.20;;;;;;5055888;28;20025;-75
2022/02/10 16:47:14;;;;;;;9.43;0.90;;;8.40;84.30;;;;;;5055781;28;20025;-78
2022/02/10 16:49:46;;;;;;;7.77;1.20;;;8.40;84.30;;;;;;5055858;28;20029;-76
2022/02/10 16:52:20;;;;;;;10.03;1.67;;;8.30;83.30;;;;;;5053856;28;20495;-76
2022/02/10 16:54:48;;;;;;;4.55;1.00;;;8.30;83.00;;;;;;5054775;28;20032;-76
2022/02/10 16:57:36;;;;;;;12.67;1.13;;;8.30;83.50;;;;;;5054424;28;20035;-77
2022/02/10 17:26:47;;;;;;;9.80;1.15;;;8.00;83.30;;;;;;5053357;28;20087;-76
2022/02/10 17:29:31;;;;;;;5.73;1.17;;;7.90;83.20;;;;;;5030908;28;20564;-78
2022/02/10 17:34:51;;;;;;;6.57;1.00;;;7.90;83.70;;;;;;5052219;28;20035;-78
2022/02/10 17:37:29;;;;;;;7.63;1.20;;;7.90;83.50;;;;;;5046096;28;20060;-77
2022/02/10 17:53:29;;;;;;;;;;;7.80;84.00;;;;;;5037326;28;20039;-78
2022/02/10 17:55:55;;;;;;;7.10;1.30;;;7.70;83.60;;;;;;5053943;28;20377;-78
2022/02/10 17:58:23;;;;;;;7.73;1.30;;;7.80;83.50;;;;;;5054276;28;20029;-78
2022/02/10 18:00:53;;;;;;;7.00;1.57;;;7.70;83.70;;;;;;5053234;28;20029;-78
2022/02/10 18:03:20;;;;;;;9.83;1.10;;;7.60;83.60;;;;;;5053626;28;20024;-78
2022/02/10 18:06:14;;;;;;;6.67;1.20;;;7.60;83.70;;;;;;5053231;28;20124;-77
2022/02/10 18:09:09;;;;;;;6.53;1.33;;;7.50;83.60;;;;;;5053290;28;20393;-78
2022/02/10 18:14:45;;;;;;;9.52;1.30;;;7.60;83.70;;;;;;5054509;28;20032;-77
2022/02/10 18:19:46;;;;;;;8.67;1.47;;;7.50;83.60;;;;;;5016910;28;20117;-76
2022/02/10 18:22:37;;;;;;;11.70;1.20;;;7.40;83.60;;;;;;5001040;28;20033;-77
2022/02/10 18:25:24;;;;;;;10.53;1.07;;;7.50;83.80;;;;;;5034108;28;20029;-78
2022/02/10 19:07:55;;;;;;;11.47;2.00;;;7.20;86.20;;;;;;5030227;28;20042;-80
2022/02/10 19:10:24;;;;;;;10.13;1.50;;;7.10;86.40;;;;;;5036128;28;20037;-80
2022/02/10 19:12:57;;;;;;;8.03;1.50;;;7.10;86.60;;;;;;5038706;28;20021;-79
2022/02/10 19:15:41;;;;;;;8.77;1.60;;;7.10;86.70;;;;;;5032857;28;20048;-80
2022/02/10 19:18:09;;;;;;;12.52;1.63;;;7.10;86.80;;;;;;5018779;28;20029;-80
2022/02/10 19:20:36;;;;;;;10.57;1.30;;;7.00;86.80;;;;;;5052095;28;20028;-80
2022/02/10 19:23:04;;;;;;;5.23;1.03;;;7.00;87.00;;;;;;5053241;28;20124;-80
2022/02/10 19:25:31;;;;;;;8.40;1.37;;;7.00;87.10;;;;;;5053093;28;20409;-80
2022/02/10 19:27:57;;;;;;;11.60;1.53;;;7.00;87.20;;;;;;5045920;28;20415;-80
2022/02/10 19:30:26;;;;;;;9.97;1.70;;;7.00;87.20;;;;;;5052034;28;20053;-79
2022/02/10 19:33:03;;;;;;;10.30;1.43;;;6.90;87.20;;;;;;5035322;28;20021;-80
2022/02/10 19:35:30;;;;;;;9.83;1.37;;;7.00;87.20;;;;;;5051980;28;20017;-80
2022/02/10 19:38:02;;;;;;;6.17;1.73;;;6.90;87.30;;;;;;5052056;28;20027;-80
2022/02/10 19:40:33;;;;;;;9.70;1.50;;;6.80;87.40;;;;;;5053292;28;20049;-80
2022/02/10 19:42:59;;;;;;;11.03;2.20;;;6.90;87.60;;;;;;5053364;28;20099;-80
2022/02/10 19:45:24;;;;;;;17.30;3.50;;;6.90;87.70;;;;;;5052131;28;20053;-80
2022/02/10 19:47:51;;;;;;;9.50;2.30;;;6.90;87.90;;;;;;5035310;28;20037;-79
2022/02/10 19:50:24;;;;;;;7.00;2.13;;;6.80;88.10;;;;;;5039697;28;20038;-80
2022/02/10 19:52:52;;;;;;;11.70;2.35;;;6.90;88.20;;;;;;5035461;28;20022;-80
2022/02/10 19:55:21;;;;;;;12.03;1.90;;;6.80;88.40;;;;;;5035195;28;20033;-79
2022/02/10 19:57:50;;;;;;;7.20;1.60;;;6.80;88.60;;;;;;5053223;28;20071;-79
2022/02/10 20:00:20;;;;;;;11.23;2.03;;;6.70;88.70;;;;;;5035676;28;20438;-79
2022/02/10 20:02:47;;;;;;;10.13;1.97;;;6.80;88.90;;;;;;5035308;28;20175;-79
2022/02/10 20:05:13;;;;;;;9.70;1.70;;;6.70;89.10;;;;;;5019375;28;20127;-79
2022/02/10 20:07:40;;;;;;;7.80;1.70;;;6.70;89.40;;;;;;5053898;28;21064;-80
2022/02/10 20:10:08;;;;;;;7.63;1.83;;;6.70;89.70;;;;;;5035971;28;20037;-78
2022/02/10 20:12:34;;;;;;;9.17;1.80;;;6.70;89.90;;;;;;5035961;28;20366;-79
2022/02/10 20:14:59;;;;;;;8.87;1.80;;;6.60;90.00;;;;;;5052983;28;20039;-79
2022/02/10 20:17:25;;;;;;;10.43;2.27;;;6.60;90.10;;;;;;5034954;28;20477;-80
2022/02/10 20:19:51;;;;;;;11.33;1.90;;;6.60;90.20;;;;;;5002375;28;20433;-79
2022/02/10 20:22:16;;;;;;;11.70;2.57;;;6.60;90.30;;;;;;5018664;28;20029;-79
2022/02/10 20:24:43;;;;;;;12.63;2.77;;;6.60;90.40;;;;;;5035080;28;20032;-79
2022/02/10 20:27:09;;;;;;;12.47;3.10;;;6.60;90.50;;;;;;5021990;28;20461;-79
2022/02/10 20:29:35;;;;;;;8.00;2.13;;;6.40;90.60;;;;;;5039383;28;20083;-80
2022/02/10 20:32:01;;;;;;;9.23;2.83;;;6.50;90.70;;;;;;5023160;28;20462;-80
2022/02/10 20:34:29;;;;;;;12.40;2.57;;;6.50;90.70;;;;;;5039157;28;20025;-80
2022/02/10 20:36:56;;;;;;;9.13;2.53;;;6.50;90.70;;;;;;5038990;28;20037;-80
2022/02/10 20:39:26;;;;;;;9.90;2.20;;;6.50;90.80;;;;;;5057001;28;20180;-80
2022/02/10 20:42:00;;;;;;;8.50;2.07;;;6.50;90.80;;;;;;5023437;28;20028;-80
2022/02/10 20:44:25;;;;;;;10.50;2.28;;;6.40;90.90;;;;;;5023271;28;20036;-80
2022/02/10 20:46:52;;;;;;;9.97;2.10;;;6.50;90.90;;;;;;5038247;28;20480;-80
2022/02/10 20:49:18;;;;;;;7.40;1.80;;;6.40;90.90;;;;;;5038351;28;20045;-80
2022/02/10 20:51:45;;;;;;;14.60;1.77;;;6.40;90.90;;;;;;5055961;28;20698;-80
2022/02/10 20:54:11;;;;;;;10.17;1.63;;;6.50;90.90;;;;;;5056112;28;20025;-80
2022/02/10 20:56:37;;;;;;;11.17;2.40;;;6.40;90.90;;;;;;5021948;28;20021;-79
2022/02/10 20:59:17;;;;;;;8.93;1.67;;;6.40;90.90;;;;;;5038154;28;20021;-80
2022/02/10 21:01:43;;;;;;;14.43;1.77;;;6.40;90.90;;;;;;5023732;28;20021;-80
2022/02/10 21:04:10;;;;;;;9.07;1.40;;;6.50;91.20;;;;;;5021325;28;20024;-79
2022/02/10 21:07:00;;;;;;;10.43;1.60;;;6.40;90.90;;;;;;5055708;28;20025;-80
2022/02/10 21:09:42;;;;;;;8.37;1.90;;;6.40;91.00;;;;;;5055391;28;20029;-80
2022/02/10 21:12:11;;;;;;;13.10;2.00;;;6.30;91.00;;;;;;5024066;28;20075;-80
2022/02/10 21:14:37;;;;;;;7.87;2.20;;;6.40;91.10;;;;;;5055924;28;20047;-80
2022/02/10 21:17:09;;;;;;;5.43;1.50;;;6.30;91.20;;;;;;5055654;28;20029;-80
2022/02/10 21:19:36;;;;;;;5.37;1.70;;;6.30;91.10;;;;;;5022152;28;20029;-80
2022/02/10 21:22:10;;;;;;;10.33;3.03;;;6.30;91.20;;;;;;5021165;28;20021;-80
2022/02/10 21:24:41;;;;;;;10.05;1.83;;;6.30;91.20;;;;;;5055690;28;20116;-80
2022/02/10 21:30:00;;;;;;;13.27;2.13;;;6.30;91.30;;;;;;5055146;28;20099;-80
2022/02/10 21:32:28;;;;;;;7.83;2.10;;;6.20;91.30;;;;;;5055080;28;20471;-80
2022/02/10 21:37:47;;;;;;;9.00;2.40;;;6.20;91.40;;;;;;5054865;28;20055;-80
2022/02/10 21:48:19;;;;;;;9.70;2.10;;;6.10;91.70;;;;;;5055006;28;20138;-80
2022/02/10 22:09:46;;;;;;;8.47;3.00;;;6.00;92.70;;;;;;5056370;28;19911;-79
2022/02/10 22:18:31;;;;;;;9.05;1.58;;;5.90;93.20;;;;;;5054522;28;20048;-79
2022/02/10 22:21:01;;;;;;;5.80;1.87;;;6.00;93.20;;;;;;5041954;28;20033;-79
2022/02/10 22:23:28;;;;;;;8.67;1.67;;;5.90;93.30;;;;;;5022419;28;20029;-79
2022/02/10 22:26:00;;;;;;;7.63;1.93;;;5.80;93.30;;;;;;5054145;28;20409;-79
2022/02/10 22:31:24;;;;;;;8.80;1.97;;;5.70;93.40;;;;;;5054199;28;20037;-79
2022/02/10 22:36:12;;;;;;;6.50;1.83;;;5.60;94.20;;;;;;5036971;28;20056;-80
2022/02/10 22:38:38;;;;;;;6.60;1.70;;;5.60;94.10;;;;;;5035902;28;20063;-80
2022/02/10 22:41:10;;;;;;;6.17;2.40;;;5.60;94.00;;;;;;5053631;28;20024;-79
2022/02/10 22:43:53;;;;;;;13.57;2.60;;;5.50;93.90;;;;;;5037088;28;20017;-79
2022/02/10 22:46:21;;;;;;;8.57;2.38;;;5.40;94.50;;;;;;5035790;28;20071;-79
2022/02/10 22:48:48;;;;;;;11.13;2.20;;;5.40;94.80;;;;;;5035239;28;20103;-79
2022/02/10 22:51:20;;;;;;;12.80;1.67;;;5.30;94.90;;;;;;5019296;28;20048;-80
2022/02/10 22:53:46;;;;;;;8.10;1.90;;;5.40;95.00;;;;;;5035709;28;20345;-80
2022/02/10 22:56:15;;;;;;;10.07;1.90;;;5.20;95.20;;;;;;5035517;28;20036;-79
2022/02/10 22:58:41;;;;;;;6.50;1.80;;;5.20;95.30;;;;;;5053183;28;20021;-79
2022/02/10 23:01:09;;;;;;;8.80;1.63;;;5.20;95.20;;;;;;5035456;28;20624;-79
2022/02/10 23:03:39;;;;;;;13.93;2.60;;;5.20;95.40;;;;;;5035585;28;20021;-79
2022/02/10 23:06:07;;;;;;;4.37;1.43;;;5.00;95.30;;;;;;5035492;28;20029;-79
2022/02/10 23:08:33;;;;;;;10.83;1.67;;;5.10;95.50;;;;;;5053270;28;20024;-79
2022/02/10 23:11:00;;;;;;;4.83;1.80;;;5.00;95.70;;;;;;5035702;28;20033;-79
2022/02/10 23:13:29;;;;;;;9.77;1.80;;;5.00;95.70;;;;;;5053239;28;20098;-79
2022/02/10 23:16:06;;;;;;;9.80;1.67;;;5.00;95.80;;;;;;5035568;28;20385;-79
2022/02/10 23:18:34;;;;;;;10.50;1.90;;;5.00;95.90;;;;;;5035579;28;20036;-79
2022/02/10 23:21:02;;;;;;;8.80;2.30;;;4.90;96.00;;;;;;5053353;28;20411;-79
2022/02/10 23:23:30;;;;;;;6.93;1.83;;;4.90;96.20;;;;;;5036212;28;20029;-79
2022/02/10 23:25:57;;;;;;;6.97;2.00;;;4.90;96.20;;;;;;5053444;28;20025;-80
2022/02/10 23:28:28;;;;;;;11.50;2.03;;;4.80;96.30;;;;;;5035713;28;20021;-79
2022/02/10 23:30:54;;;;;;;13.30;1.70;;;4.90;96.40;;;;;;5035280;28;20083;-79
2022/02/10 23:33:26;;;;;;;13.57;2.27;;;4.80;96.50;;;;;;5035326;28;20052;-79
2022/02/10 23:38:35;;;;;;;8.07;2.37;;;4.70;96.50;;;;;;5036805;28;20120;-79
2022/02/10 23:41:45;;;;;;;8.63;2.05;;;4.70;96.50;;;;;;5036626;28;20064;-79
2022/02/10 23:43:59;;;;;;;7.63;1.53;;;4.70;96.50;;;;;;5039571;28;20485;-79
2022/02/10 23:46:27;;;;;;;6.37;2.20;;;4.60;96.80;;;;;;5035621;28;20045;-79
2022/02/10 23:48:55;;;;;;;12.00;3.00;;;4.70;97.10;;;;;;5035005;28;20052;-80
2022/02/10 23:51:24;;;;;;;8.27;1.83;;;4.60;96.90;;;;;;5002925;28;20028;-79
2022/02/10 23:53:50;;;;;;;10.27;2.90;;;4.60;96.90;;;;;;5019647;28;20071;-79
2022/02/10 23:56:18;;;;;;;10.67;2.43;;;4.50;97.30;;;;;;5018897;28;20017;-79
